Time;durP1;ratioP1;P1;durP2;ratioP2;P2;SDS_P1;SDS_P2;PMS_P1;PMS_P2;Temp;Humidity;BMP_temperature;BMP_pressure;BME280_temperature;BME280_humidity;BME280_pressure;Samples;Min_cycle;Max_cycle;Signal;HPM_P1;HPM_P2
2021/08/25 00:01:16;;;;;;;14.63;6.78;;;15.70;99.90;;;;;;5010238;28;20033;-74
2021/08/25 00:03:44;;;;;;;11.57;6.55;;;15.70;99.90;;;;;;5011876;28;20029;-74
2021/08/25 00:06:09;;;;;;;13.80;6.57;;;15.70;99.90;;;;;;5013083;28;20129;-74
2021/08/25 00:08:36;;;;;;;9.63;6.75;;;15.70;99.90;;;;;;5010534;28;20116;-75
2021/08/25 00:11:02;;;;;;;11.27;7.32;;;15.70;99.90;;;;;;5011341;28;20042;-74
2021/08/25 00:13:29;;;;;;;13.30;7.43;;;15.70;99.90;;;;;;5009730;28;20532;-74
2021/08/25 00:15:55;;;;;;;7.93;6.47;;;15.60;99.90;;;;;;5011534;28;20022;-74
2021/08/25 00:18:21;;;;;;;15.90;8.18;;;15.60;99.90;;;;;;5012419;28;20025;-74
2021/08/25 00:20:47;;;;;;;11.75;8.30;;;15.60;99.90;;;;;;5009351;28;20028;-74
2021/08/25 00:23:12;;;;;;;11.27;7.38;;;15.60;99.90;;;;;;5010141;28;20041;-74
2021/08/25 00:25:38;;;;;;;12.02;8.13;;;15.50;99.90;;;;;;5010434;28;20482;-74
2021/08/25 00:28:04;;;;;;;10.98;7.18;;;15.50;99.90;;;;;;5011003;28;20351;-74
2021/08/25 00:30:30;;;;;;;14.90;7.30;;;15.50;99.90;;;;;;5010540;28;20041;-74
2021/08/25 00:33:14;;;;;;;11.27;7.68;;;15.50;99.90;;;;;;5005341;28;20033;-74
2021/08/25 00:35:40;;;;;;;17.90;7.30;;;15.50;99.90;;;;;;5010532;28;20029;-74
2021/08/25 00:38:06;;;;;;;8.57;6.60;;;15.50;99.90;;;;;;5003675;28;20034;-74
2021/08/25 00:40:32;;;;;;;9.73;6.57;;;15.50;99.90;;;;;;5007981;28;20105;-74
2021/08/25 00:43:08;;;;;;;11.57;7.55;;;15.50;99.90;;;;;;5010764;28;20073;-74
2021/08/25 00:45:41;;;;;;;8.33;6.47;;;15.50;99.90;;;;;;5011745;28;20371;-74
2021/08/25 00:48:08;;;;;;;11.35;6.85;;;15.50;99.90;;;;;;5008892;28;20027;-74
2021/08/25 00:50:35;;;;;;;9.30;6.25;;;15.40;99.90;;;;;;5025606;28;20026;-74
2021/08/25 00:53:03;;;;;;;8.57;6.20;;;15.40;99.90;;;;;;5009236;28;20022;-75
2021/08/25 00:55:32;;;;;;;10.55;7.28;;;15.30;99.90;;;;;;5026325;28;20030;-74
2021/08/25 00:58:00;;;;;;;7.68;5.75;;;15.30;99.90;;;;;;5012899;28;20026;-74
2021/08/25 01:00:25;;;;;;;8.60;6.32;;;15.20;99.90;;;;;;5012858;28;20445;-73
2021/08/25 01:03:00;;;;;;;10.35;6.80;;;15.20;99.90;;;;;;5006720;28;20112;-74
2021/08/25 01:05:27;;;;;;;11.43;6.93;;;15.20;99.90;;;;;;5015739;28;20049;-74
2021/08/25 01:07:54;;;;;;;10.77;6.97;;;15.10;99.90;;;;;;5011315;28;20030;-74
2021/08/25 01:10:27;;;;;;;13.50;6.68;;;15.10;99.90;;;;;;5014396;28;20108;-74
2021/08/25 01:12:58;;;;;;;9.15;6.80;;;15.10;99.90;;;;;;5013534;28;20112;-74
2021/08/25 01:15:29;;;;;;;13.02;6.90;;;15.10;99.90;;;;;;5011963;28;20072;-74
2021/08/25 01:17:56;;;;;;;14.43;7.85;;;15.00;99.90;;;;;;5011275;28;20037;-74
2021/08/25 01:20:24;;;;;;;14.25;8.77;;;14.90;99.90;;;;;;5010601;28;20038;-74
2021/08/25 01:22:50;;;;;;;13.90;7.70;;;15.00;99.90;;;;;;5013563;28;20093;-74
2021/08/25 01:25:16;;;;;;;11.57;7.60;;;14.90;99.90;;;;;;5015069;28;20041;-74
2021/08/25 01:27:50;;;;;;;11.52;7.68;;;14.90;99.90;;;;;;5013028;28;20038;-75
2021/08/25 01:30:17;;;;;;;9.25;7.28;;;15.00;99.90;;;;;;5015024;28;20089;-74
2021/08/25 01:32:42;;;;;;;14.65;9.35;;;14.90;99.90;;;;;;5013074;28;20476;-74
2021/08/25 01:35:09;;;;;;;17.90;10.73;;;14.90;99.90;;;;;;5014190;28;20046;-74
2021/08/25 01:37:35;;;;;;;16.08;9.95;;;14.90;99.90;;;;;;5010586;28;20026;-74
2021/08/25 01:40:02;;;;;;;20.63;10.30;;;14.90;99.90;;;;;;5011382;28;20483;-74
2021/08/25 01:42:28;;;;;;;12.45;10.18;;;14.90;99.90;;;;;;5015030;28;20490;-74
2021/08/25 01:44:53;;;;;;;20.33;10.48;;;14.90;99.90;;;;;;5010385;28;20354;-74
2021/08/25 01:47:20;;;;;;;18.90;11.15;;;14.80;99.90;;;;;;5011497;28;20038;-74
2021/08/25 01:49:49;;;;;;;20.83;11.20;;;14.90;99.90;;;;;;5013710;28;20517;-73
2021/08/25 01:52:16;;;;;;;21.50;10.77;;;14.90;99.90;;;;;;5015321;28;20042;-75
2021/08/25 01:54:46;;;;;;;19.07;12.27;;;14.90;99.90;;;;;;5011937;28;20083;-74
2021/08/25 01:57:12;;;;;;;22.50;11.75;;;14.90;99.90;;;;;;5013581;28;20022;-75
2021/08/25 01:59:38;;;;;;;17.73;10.63;;;14.90;99.90;;;;;;5013348;28;20528;-74
2021/08/25 02:02:04;;;;;;;15.93;11.07;;;14.90;99.90;;;;;;5005988;28;20403;-74
2021/08/25 02:04:30;;;;;;;19.50;11.77;;;14.90;99.90;;;;;;5014435;28;20033;-74
2021/08/25 02:06:55;;;;;;;19.15;10.70;;;14.90;99.90;;;;;;5015627;28;20033;-74
2021/08/25 02:09:21;;;;;;;20.20;11.55;;;14.90;99.90;;;;;;5013334;28;20022;-74
2021/08/25 02:11:47;;;;;;;15.20;10.25;;;14.90;99.90;;;;;;5012577;28;20096;-74
2021/08/25 02:14:13;;;;;;;16.15;10.70;;;14.90;99.90;;;;;;5016657;28;20040;-74
2021/08/25 02:16:39;;;;;;;15.13;9.20;;;14.90;99.90;;;;;;5011908;28;20030;-74
2021/08/25 02:19:05;;;;;;;12.50;8.80;;;14.90;99.90;;;;;;5021998;28;20088;-74
2021/08/25 02:21:31;;;;;;;11.00;8.23;;;14.90;99.90;;;;;;5030211;28;20038;-74
2021/08/25 02:23:56;;;;;;;14.90;9.75;;;14.90;99.90;;;;;;5034146;28;20029;-74
2021/08/25 02:26:22;;;;;;;18.17;10.68;;;14.80;99.90;;;;;;5030289;28;20029;-74
2021/08/25 02:28:51;;;;;;;20.50;12.25;;;14.80;99.90;;;;;;5033814;28;20026;-75
2021/08/25 02:31:17;;;;;;;21.75;10.73;;;14.80;99.90;;;;;;5033149;28;20030;-75
2021/08/25 02:33:43;;;;;;;20.85;12.20;;;14.80;99.90;;;;;;5031947;28;20044;-74
2021/08/25 02:36:10;;;;;;;26.20;14.82;;;14.80;99.90;;;;;;5035367;28;20037;-74
2021/08/25 02:38:37;;;;;;;21.33;12.75;;;14.80;99.90;;;;;;5031302;28;20031;-75
2021/08/25 02:41:04;;;;;;;20.42;12.85;;;14.80;99.90;;;;;;5033071;28;20045;-75
2021/08/25 02:43:30;;;;;;;26.30;13.93;;;14.70;99.90;;;;;;5028207;28;20030;-73
2021/08/25 02:45:55;;;;;;;22.33;12.65;;;14.70;99.90;;;;;;5020436;28;21350;-75
2021/08/25 02:48:21;;;;;;;24.20;14.15;;;14.60;99.90;;;;;;5021339;28;20040;-75
2021/08/25 02:50:47;;;;;;;29.95;13.82;;;14.60;99.90;;;;;;5016339;28;20181;-75
2021/08/25 02:53:12;;;;;;;24.77;13.02;;;14.60;99.90;;;;;;5018023;28;20026;-74
2021/08/25 02:55:38;;;;;;;31.70;15.35;;;14.70;99.90;;;;;;5018670;28;20034;-75
2021/08/25 02:58:04;;;;;;;27.20;14.38;;;14.70;99.90;;;;;;5012943;28;20486;-74
2021/08/25 03:00:29;;;;;;;25.50;13.75;;;14.70;99.90;;;;;;5017206;28;20037;-74
2021/08/25 03:02:55;;;;;;;23.00;12.95;;;14.70;99.90;;;;;;5005211;28;20407;-74
2021/08/25 03:05:20;;;;;;;24.08;14.70;;;14.70;99.90;;;;;;5012470;28;20041;-74
2021/08/25 03:07:46;;;;;;;25.27;13.52;;;14.70;99.90;;;;;;5012844;28;20489;-74
2021/08/25 03:10:12;;;;;;;20.08;11.73;;;14.70;99.90;;;;;;5012599;28;20025;-74
2021/08/25 03:12:38;;;;;;;19.67;12.48;;;14.80;99.90;;;;;;5010662;28;20116;-75
2021/08/25 03:15:06;;;;;;;20.13;12.35;;;14.80;99.90;;;;;;5012960;28;20030;-74
2021/08/25 03:17:32;;;;;;;19.80;12.02;;;14.80;99.90;;;;;;5011964;28;20408;-74
2021/08/25 03:19:57;;;;;;;25.35;12.70;;;14.70;99.90;;;;;;5005665;28;20129;-74
2021/08/25 03:22:23;;;;;;;24.23;13.10;;;14.70;99.90;;;;;;5013244;28;20034;-75
2021/08/25 03:24:49;;;;;;;22.38;13.10;;;14.70;99.90;;;;;;5010463;28;20022;-74
2021/08/25 03:27:14;;;;;;;21.63;12.45;;;14.70;99.90;;;;;;5013902;28;20083;-74
2021/08/25 03:29:40;;;;;;;24.63;13.27;;;14.60;99.90;;;;;;5009032;28;20026;-74
2021/08/25 03:32:06;;;;;;;28.40;13.93;;;14.60;99.90;;;;;;5012656;28;20030;-74
2021/08/25 03:34:32;;;;;;;25.80;13.15;;;14.60;99.90;;;;;;5007514;28;20034;-75
2021/08/25 03:36:57;;;;;;;24.38;12.90;;;14.60;99.90;;;;;;5010758;28;20171;-74
2021/08/25 03:39:23;;;;;;;23.75;13.57;;;14.60;99.90;;;;;;5010600;28;20018;-74
2021/08/25 03:41:49;;;;;;;17.02;11.00;;;14.60;99.90;;;;;;5012613;28;20121;-74
2021/08/25 03:44:14;;;;;;;22.70;12.73;;;14.70;99.90;;;;;;5011315;28;20030;-74
2021/08/25 03:46:40;;;;;;;23.55;13.27;;;14.70;99.90;;;;;;5010369;28;20490;-74
2021/08/25 03:49:05;;;;;;;23.05;12.30;;;14.70;99.90;;;;;;5007177;28;20029;-74
2021/08/25 03:51:31;;;;;;;18.02;11.10;;;14.70;99.90;;;;;;5010864;28;20406;-74
2021/08/25 03:53:57;;;;;;;20.55;13.40;;;14.70;99.90;;;;;;5012659;28;20022;-74
2021/08/25 03:56:23;;;;;;;27.20;13.52;;;14.60;99.90;;;;;;5006781;28;20394;-74
2021/08/25 03:58:48;;;;;;;22.75;13.32;;;14.60;99.90;;;;;;5013329;28;20026;-75
2021/08/25 04:01:14;;;;;;;26.88;13.95;;;14.50;99.90;;;;;;5007447;28;20056;-74
2021/08/25 04:03:40;;;;;;;24.80;13.70;;;14.50;99.90;;;;;;5007841;28;20474;-75
2021/08/25 04:06:05;;;;;;;18.90;12.32;;;14.50;99.90;;;;;;5013263;28;20026;-74
2021/08/25 04:08:31;;;;;;;21.60;12.70;;;14.50;99.90;;;;;;5011032;28;20535;-74
2021/08/25 04:10:57;;;;;;;19.33;11.93;;;14.50;99.90;;;;;;5007663;28;20050;-74
2021/08/25 04:13:22;;;;;;;24.08;11.80;;;14.50;99.90;;;;;;5011176;28;20018;-75
2021/08/25 04:15:48;;;;;;;19.42;12.25;;;14.50;99.90;;;;;;5012842;28;20076;-74
2021/08/25 04:18:14;;;;;;;18.58;12.13;;;14.50;99.90;;;;;;5012316;28;20022;-74
2021/08/25 04:20:39;;;;;;;21.25;13.05;;;14.40;99.90;;;;;;5010699;28;20029;-74
2021/08/25 04:23:05;;;;;;;23.63;13.57;;;14.40;99.90;;;;;;5012868;28;20037;-76
2021/08/25 04:25:31;;;;;;;23.80;13.63;;;14.30;99.90;;;;;;5011043;28;20084;-74
2021/08/25 04:27:56;;;;;;;21.38;13.13;;;14.30;99.90;;;;;;5013038;28;20101;-74
2021/08/25 04:30:22;;;;;;;30.27;14.57;;;14.30;99.90;;;;;;5007723;28;20041;-74
2021/08/25 04:32:47;;;;;;;23.15;13.35;;;14.30;99.90;;;;;;5008169;28;20057;-74
2021/08/25 04:35:13;;;;;;;23.13;13.88;;;14.30;99.90;;;;;;5008339;28;20038;-74
2021/08/25 04:37:39;;;;;;;25.48;12.93;;;14.30;99.90;;;;;;5009309;28;20026;-74
2021/08/25 04:40:05;;;;;;;20.83;12.23;;;14.30;99.90;;;;;;5005918;28;20058;-74
2021/08/25 04:42:31;;;;;;;29.80;16.05;;;14.30;99.90;;;;;;5003226;28;20022;-74
2021/08/25 04:44:57;;;;;;;28.70;14.05;;;14.20;99.90;;;;;;5013156;28;20524;-74
2021/08/25 04:47:23;;;;;;;22.02;13.15;;;14.30;99.90;;;;;;5009958;28;20046;-74
2021/08/25 04:49:48;;;;;;;22.05;13.85;;;14.30;99.90;;;;;;5004702;28;20027;-74
2021/08/25 04:52:14;;;;;;;18.60;12.80;;;14.30;99.90;;;;;;5008420;28;20030;-74
2021/08/25 04:54:40;;;;;;;24.73;13.23;;;14.40;99.90;;;;;;5003885;28;20037;-74
2021/08/25 04:57:06;;;;;;;20.35;13.35;;;14.30;99.90;;;;;;5009664;28;20061;-74
2021/08/25 04:59:31;;;;;;;24.10;13.27;;;14.30;99.90;;;;;;5011376;28;20022;-74
2021/08/25 05:01:57;;;;;;;21.45;12.65;;;14.30;99.90;;;;;;5009242;28;20041;-74
2021/08/25 05:04:23;;;;;;;22.48;12.80;;;14.30;99.90;;;;;;5011105;28;20485;-74
2021/08/25 05:06:48;;;;;;;21.58;13.25;;;14.20;99.90;;;;;;5009826;28;20398;-74
2021/08/25 05:09:14;;;;;;;22.30;13.45;;;14.20;99.90;;;;;;5004805;28;20244;-73
2021/08/25 05:11:39;;;;;;;25.85;14.00;;;14.10;99.90;;;;;;5006633;28;20038;-74
2021/08/25 05:14:05;;;;;;;28.65;14.48;;;14.10;99.90;;;;;;5009995;28;20030;-74
2021/08/25 05:16:31;;;;;;;24.30;13.23;;;14.10;99.90;;;;;;5007326;28;20390;-74
2021/08/25 05:18:56;;;;;;;22.50;12.93;;;14.10;99.90;;;;;;5008396;28;20040;-74
2021/08/25 05:21:23;;;;;;;22.52;12.88;;;14.10;99.90;;;;;;5009494;28;20428;-74
2021/08/25 05:23:49;;;;;;;22.83;12.43;;;14.10;99.90;;;;;;5005535;28;20483;-74
2021/08/25 05:26:14;;;;;;;19.00;12.80;;;14.10;99.90;;;;;;5012704;28;20117;-74
2021/08/25 05:28:40;;;;;;;21.23;13.00;;;14.10;99.90;;;;;;5004048;28;20105;-75
2021/08/25 05:31:06;;;;;;;20.92;12.95;;;14.10;99.90;;;;;;5010166;28;20445;-74
2021/08/25 05:33:31;;;;;;;22.30;13.07;;;14.10;99.90;;;;;;5010673;28;20026;-74
2021/08/25 05:36:00;;;;;;;18.60;12.70;;;14.10;99.90;;;;;;5007556;28;20037;-74
2021/08/25 05:38:26;;;;;;;18.98;12.70;;;14.10;99.90;;;;;;5004498;28;20025;-74
2021/08/25 05:40:52;;;;;;;20.20;12.38;;;14.10;99.90;;;;;;5008360;28;20583;-74
2021/08/25 05:43:17;;;;;;;18.98;12.40;;;14.20;99.90;;;;;;5011631;28;20030;-74
2021/08/25 05:45:44;;;;;;;15.80;11.15;;;14.20;99.90;;;;;;5010437;28;20075;-75
2021/08/25 05:48:09;;;;;;;20.95;11.57;;;14.30;99.90;;;;;;5011975;28;20024;-74
2021/08/25 05:50:35;;;;;;;16.67;11.23;;;14.30;99.90;;;;;;5010663;28;20497;-74
2021/08/25 05:53:01;;;;;;;16.95;10.70;;;14.30;99.90;;;;;;5008835;28;20057;-74
2021/08/25 05:55:26;;;;;;;18.00;11.90;;;14.40;99.90;;;;;;5012832;28;20095;-74
2021/08/25 05:57:52;;;;;;;22.23;11.90;;;14.40;99.90;;;;;;5006927;28;20026;-74
2021/08/25 06:00:19;;;;;;;22.83;13.02;;;14.40;99.90;;;;;;5009542;28;20022;-74
2021/08/25 06:02:45;;;;;;;19.95;12.63;;;14.50;99.90;;;;;;5013242;28;20357;-74
2021/08/25 06:05:12;;;;;;;25.60;14.40;;;14.50;99.90;;;;;;5008600;28;20026;-74
2021/08/25 06:07:37;;;;;;;22.33;13.90;;;14.40;99.90;;;;;;5015039;28;20091;-74
2021/08/25 06:10:04;;;;;;;23.02;13.70;;;14.40;99.90;;;;;;5009169;28;20034;-74
2021/08/25 06:12:30;;;;;;;18.13;12.98;;;14.40;99.90;;;;;;5012367;28;20585;-74
2021/08/25 06:14:56;;;;;;;19.50;12.23;;;14.60;99.90;;;;;;5007296;28;20121;-74
2021/08/25 06:17:21;;;;;;;18.02;12.60;;;14.60;99.90;;;;;;5011754;28;20050;-74
2021/08/25 06:19:47;;;;;;;16.38;11.82;;;14.70;99.90;;;;;;5012544;28;20030;-74
2021/08/25 06:22:13;;;;;;;20.67;12.35;;;14.90;99.90;;;;;;5011395;28;20108;-75
2021/08/25 06:24:38;;;;;;;20.13;12.13;;;15.00;99.90;;;;;;5009984;28;20018;-74
2021/08/25 06:27:04;;;;;;;21.60;12.45;;;15.10;99.90;;;;;;5008914;28;20026;-76
2021/08/25 06:29:30;;;;;;;17.90;11.35;;;15.00;99.90;;;;;;5015099;28;20029;-75
2021/08/25 06:31:58;;;;;;;20.60;12.35;;;15.10;99.90;;;;;;5012886;28;20083;-81
2021/08/25 06:34:24;;;;;;;20.95;12.48;;;15.10;99.90;;;;;;5011403;28;20053;-83
2021/08/25 06:36:49;;;;;;;16.95;12.88;;;15.10;99.90;;;;;;5011808;28;20061;-73
2021/08/25 06:39:15;;;;;;;14.50;11.38;;;15.30;99.90;;;;;;5013881;28;20061;-73
2021/08/25 06:41:41;;;;;;;17.48;12.05;;;15.30;99.90;;;;;;5010502;28;20133;-72
2021/08/25 06:44:06;;;;;;;15.35;10.90;;;15.30;99.90;;;;;;5010153;28;20165;-74
2021/08/25 06:46:32;;;;;;;21.15;12.60;;;15.30;99.90;;;;;;4995997;28;20042;-74
2021/08/25 06:48:58;;;;;;;18.25;11.40;;;15.40;99.90;;;;;;4995783;28;20080;-74
2021/08/25 06:51:24;;;;;;;17.98;11.73;;;15.60;99.90;;;;;;5008657;28;20077;-73
2021/08/25 06:53:49;;;;;;;19.63;12.63;;;15.50;99.90;;;;;;4995456;28;20029;-73
2021/08/25 06:56:15;;;;;;;18.88;12.95;;;15.40;99.90;;;;;;5010858;28;20057;-74
2021/08/25 06:58:41;;;;;;;18.85;11.98;;;15.30;99.90;;;;;;5012428;28;20032;-74
2021/08/25 07:01:07;;;;;;;18.85;13.75;;;15.30;99.90;;;;;;5004613;28;20073;-74
2021/08/25 07:03:34;;;;;;;21.48;12.98;;;15.30;99.90;;;;;;5011574;28;20036;-75
2021/08/25 07:06:00;;;;;;;20.42;13.52;;;15.30;99.90;;;;;;4992901;28;20037;-75
2021/08/25 07:08:26;;;;;;;17.92;12.18;;;15.30;99.90;;;;;;4994599;28;20136;-75
2021/08/25 07:10:51;;;;;;;17.77;12.20;;;15.40;99.90;;;;;;5011371;28;20376;-76
2021/08/25 07:13:17;;;;;;;20.40;12.90;;;15.50;99.90;;;;;;5010782;28;20133;-76
2021/08/25 07:15:42;;;;;;;19.75;12.02;;;15.50;99.90;;;;;;5014801;28;20022;-76
2021/08/25 07:18:08;;;;;;;15.98;11.68;;;15.60;99.90;;;;;;5005961;28;20475;-74
2021/08/25 07:20:34;;;;;;;15.32;11.30;;;15.70;99.90;;;;;;5008400;28;20018;-76
2021/08/25 07:22:59;;;;;;;16.83;11.98;;;15.90;99.90;;;;;;5010843;28;20026;-74
2021/08/25 07:25:25;;;;;;;21.75;12.88;;;16.00;99.90;;;;;;4997130;28;20034;-73
2021/08/25 07:27:51;;;;;;;16.02;11.10;;;16.10;99.90;;;;;;5000440;28;20029;-74
2021/08/25 07:30:16;;;;;;;23.17;12.70;;;16.20;99.90;;;;;;5000853;28;20129;-75
2021/08/25 07:32:42;;;;;;;15.85;11.35;;;16.30;99.90;;;;;;5011739;28;20367;-74
2021/08/25 07:35:10;;;;;;;13.98;11.88;;;16.40;99.90;;;;;;5003859;28;20149;-74
2021/08/25 07:37:36;;;;;;;15.85;11.63;;;16.50;99.90;;;;;;4994324;28;20031;-74
2021/08/25 07:40:04;;;;;;;17.92;11.30;;;16.60;99.90;;;;;;4999296;28;20026;-74
2021/08/25 07:42:29;;;;;;;;;;;16.60;99.90;;;;;;4996332;28;20034;-74
2021/08/25 07:44:55;;;;;;;18.50;11.40;;;16.60;99.90;;;;;;4994161;28;19960;-75
2021/08/25 07:47:21;;;;;;;17.63;10.98;;;16.70;99.90;;;;;;4994071;28;20072;-73
2021/08/25 07:49:46;;;;;;;15.65;10.65;;;16.80;99.90;;;;;;4995025;28;20066;-74
2021/08/25 07:52:12;;;;;;;14.55;10.68;;;16.90;99.90;;;;;;4994730;28;20030;-74
2021/08/25 07:54:37;;;;;;;14.85;10.38;;;17.00;99.90;;;;;;4994671;28;20026;-74
2021/08/25 07:57:03;;;;;;;13.93;9.75;;;17.10;99.90;;;;;;5011840;28;20022;-74
2021/08/25 07:59:29;;;;;;;15.98;9.98;;;17.30;99.90;;;;;;5014441;28;20026;-74
2021/08/25 08:01:54;;;;;;;12.38;9.25;;;17.40;99.90;;;;;;5013002;28;20553;-74
2021/08/25 08:04:20;;;;;;;14.90;9.13;;;17.60;99.90;;;;;;5011841;28;20386;-74
2021/08/25 08:06:46;;;;;;;12.82;7.75;;;17.80;99.90;;;;;;5013578;28;20037;-74
2021/08/25 08:09:13;;;;;;;15.45;10.25;;;18.00;99.90;;;;;;5011373;28;20034;-73
2021/08/25 08:11:39;;;;;;;15.40;10.07;;;18.10;99.90;;;;;;5012119;28;20406;-74
2021/08/25 08:14:06;;;;;;;13.52;9.85;;;18.00;99.90;;;;;;5012754;28;20048;-75
2021/08/25 08:16:34;;;;;;;15.55;10.15;;;17.90;99.90;;;;;;5001082;28;20030;-74
2021/08/25 08:19:22;;;;;;;15.25;9.13;;;17.90;99.90;;;;;;4994683;28;20015;-73
2021/08/25 08:21:48;;;;;;;15.63;10.43;;;18.00;99.90;;;;;;4994181;28;20035;-74
2021/08/25 08:24:14;;;;;;;19.00;10.50;;;18.10;99.90;;;;;;5011044;28;20021;-74
2021/08/25 08:26:40;;;;;;;13.52;9.63;;;18.20;99.90;;;;;;5014040;28;20034;-73
2021/08/25 08:29:06;;;;;;;16.50;10.23;;;18.20;99.90;;;;;;5013026;28;20490;-74
2021/08/25 08:31:32;;;;;;;18.00;10.15;;;18.30;99.90;;;;;;5012528;28;20026;-74
2021/08/25 08:33:58;;;;;;;16.70;9.35;;;18.30;99.90;;;;;;5013410;28;20026;-74
2021/08/25 08:36:24;;;;;;;13.95;9.40;;;18.40;99.90;;;;;;5012566;28;20014;-74
2021/08/25 08:38:50;;;;;;;18.40;10.07;;;18.50;99.90;;;;;;5024468;28;20022;-74
2021/08/25 08:41:16;;;;;;;14.35;8.65;;;18.60;99.90;;;;;;5013773;28;20044;-74
2021/08/25 08:43:52;;;;;;;14.20;8.80;;;18.70;99.90;;;;;;5013739;28;20064;-74
2021/08/25 08:46:22;;;;;;;11.38;7.57;;;18.70;99.90;;;;;;5012603;28;20518;-74
2021/08/25 08:48:49;;;;;;;12.32;7.88;;;18.90;99.90;;;;;;5013532;28;20022;-74
2021/08/25 08:51:22;;;;;;;12.40;7.63;;;19.00;99.90;;;;;;5013748;28;20026;-74
2021/08/25 08:53:50;;;;;;;9.55;6.72;;;18.90;99.90;;;;;;5012373;28;20033;-74
2021/08/25 08:56:16;;;;;;;13.30;7.80;;;19.00;99.90;;;;;;5012118;28;20037;-74
2021/08/25 08:58:42;;;;;;;10.45;5.95;;;19.00;99.90;;;;;;5013541;28;20018;-74
2021/08/25 09:01:08;;;;;;;11.40;6.25;;;19.10;99.90;;;;;;5012361;28;20395;-74
2021/08/25 09:03:36;;;;;;;10.65;5.90;;;19.20;99.90;;;;;;5012144;28;20437;-74
2021/08/25 09:06:03;;;;;;;16.02;6.25;;;19.20;99.90;;;;;;5012263;28;20105;-74
2021/08/25 09:08:30;;;;;;;24.00;7.63;;;19.30;99.90;;;;;;5012359;28;20026;-74
2021/08/25 09:11:11;;;;;;;17.23;6.88;;;19.40;99.90;;;;;;5012845;28;20034;-74
2021/08/25 09:13:48;;;;;;;14.00;6.72;;;19.50;99.90;;;;;;5012184;28;20494;-74
2021/08/25 09:16:25;;;;;;;12.18;5.60;;;19.60;99.90;;;;;;5006284;28;20109;-75
2021/08/25 09:19:06;;;;;;;8.60;5.05;;;19.80;99.90;;;;;;4994345;28;20049;-73
2021/08/25 09:21:37;;;;;;;9.23;5.50;;;20.10;99.90;;;;;;5001810;28;20074;-73
2021/08/25 09:24:05;;;;;;;11.77;5.40;;;20.30;99.90;;;;;;5001806;28;20029;-73
2021/08/25 09:26:31;;;;;;;14.82;5.07;;;20.40;99.90;;;;;;5004896;28;20109;-73
2021/08/25 09:29:18;;;;;;;13.30;4.70;;;20.40;99.90;;;;;;5008619;28;20021;-73
2021/08/25 09:31:49;;;;;;;10.50;4.75;;;20.50;99.90;;;;;;5002590;28;20471;-73
2021/08/25 09:34:28;;;;;;;8.52;5.07;;;20.70;99.90;;;;;;5002988;28;20105;-72
2021/08/25 09:37:17;;;;;;;9.07;4.45;;;20.90;99.90;;;;;;5013661;28;20084;-72
2021/08/25 09:39:48;;;;;;;10.55;4.32;;;20.80;99.90;;;;;;4999103;28;20478;-72
2021/08/25 09:42:16;;;;;;;9.73;4.38;;;20.70;99.90;;;;;;5001568;28;20421;-72
2021/08/25 09:44:43;;;;;;;7.65;4.45;;;20.80;99.90;;;;;;4997148;28;20022;-72
2021/08/25 09:47:09;;;;;;;10.55;5.45;;;20.90;99.90;;;;;;5008786;28;20163;-72
2021/08/25 09:49:35;;;;;;;6.10;4.22;;;21.00;99.90;;;;;;5003579;28;20204;-73
2021/08/25 09:52:01;;;;;;;8.07;4.20;;;20.80;99.90;;;;;;5000714;28;20498;-72
2021/08/25 09:54:26;;;;;;;5.63;3.30;;;21.00;99.90;;;;;;5006969;28;20022;-72
2021/08/25 09:56:53;;;;;;;8.57;3.42;;;21.40;99.90;;;;;;5001288;28;20037;-72
2021/08/25 09:59:20;;;;;;;5.80;3.28;;;21.60;99.90;;;;;;5007474;28;20420;-74
2021/08/25 10:01:46;;;;;;;8.07;3.70;;;21.60;99.90;;;;;;4996692;28;20102;-72
2021/08/25 10:04:16;;;;;;;7.73;3.73;;;21.70;99.90;;;;;;5002835;28;20450;-72
2021/08/25 10:06:47;;;;;;;4.75;3.58;;;21.90;99.90;;;;;;5012677;28;20026;-72
2021/08/25 10:09:14;;;;;;;5.38;3.40;;;21.60;99.90;;;;;;5006372;28;20156;-72
2021/08/25 10:11:51;;;;;;;7.78;3.35;;;21.10;99.90;;;;;;5011688;28;20084;-72
2021/08/25 10:14:17;;;;;;;6.35;3.17;;;20.80;99.90;;;;;;5014247;28;20050;-72
2021/08/25 10:16:48;;;;;;;5.50;3.15;;;20.70;99.90;;;;;;5001259;28;20069;-72
2021/08/25 10:19:34;;;;;;;6.03;3.67;;;20.70;99.90;;;;;;5016757;28;20097;-72
2021/08/25 10:22:14;;;;;;;5.88;3.28;;;21.00;99.90;;;;;;5009494;28;20080;-73
2021/08/25 10:25:05;;;;;;;6.63;3.13;;;21.20;99.90;;;;;;5008954;28;20536;-72
2021/08/25 10:27:33;;;;;;;3.90;2.63;;;21.10;99.90;;;;;;5008701;28;20121;-72
2021/08/25 10:30:04;;;;;;;;;;;21.00;99.90;;;;;;5002447;28;20037;-73
2021/08/25 10:32:31;;;;;;;4.18;2.72;;;20.90;99.90;;;;;;5008994;28;19992;-72
2021/08/25 10:35:18;;;;;;;3.33;2.45;;;20.90;99.90;;;;;;5003890;28;20485;-72
2021/08/25 10:37:46;;;;;;;2.83;2.30;;;21.00;99.90;;;;;;4998179;28;20066;-72
2021/08/25 10:40:12;;;;;;;3.53;2.50;;;21.20;99.90;;;;;;5007582;28;20038;-72
2021/08/25 10:43:07;;;;;;;4.05;2.05;;;21.30;99.90;;;;;;5015569;28;20037;-72
2021/08/25 10:45:39;;;;;;;4.55;2.70;;;21.10;99.90;;;;;;5000669;28;20042;-72
2021/08/25 10:48:09;;;;;;;3.35;2.30;;;21.30;99.90;;;;;;5015902;28;20077;-73
2021/08/25 10:50:55;;;;;;;7.20;2.53;;;21.40;99.90;;;;;;5005503;28;20470;-72
2021/08/25 10:53:33;;;;;;;3.27;2.17;;;21.40;99.90;;;;;;5017452;28;20026;-72
2021/08/25 10:56:05;;;;;;;;;;;21.60;99.90;;;;;;4996363;28;20271;-74
2021/08/25 10:58:47;;;;;;;3.45;1.85;;;21.70;99.90;;;;;;5001939;28;19909;-75
2021/08/25 11:01:26;;;;;;;4.28;2.70;;;21.70;99.90;;;;;;5015500;28;20022;-74
2021/08/25 11:03:53;;;;;;;6.70;2.30;;;21.50;99.90;;;;;;4995864;28;20110;-75
2021/08/25 11:06:30;;;;;;;4.50;2.65;;;21.20;99.90;;;;;;5001102;28;20450;-75
2021/08/25 11:09:28;;;;;;;6.60;3.20;;;21.10;99.90;;;;;;5015082;28;20034;-74
2021/08/25 11:11:56;;;;;;;5.20;2.70;;;21.10;99.90;;;;;;5010317;28;20044;-74
2021/08/25 11:14:23;;;;;;;4.53;2.60;;;20.90;99.90;;;;;;5004075;28;20026;-75
2021/08/25 11:16:50;;;;;;;5.45;2.90;;;20.80;99.90;;;;;;5010416;28;20037;-74
2021/08/25 11:19:23;;;;;;;4.68;3.15;;;20.60;99.90;;;;;;4994225;28;20050;-74
2021/08/25 11:21:50;;;;;;;8.45;3.15;;;20.80;99.90;;;;;;5023597;28;20034;-75
2021/08/25 11:24:15;;;;;;;6.85;2.40;;;21.10;99.90;;;;;;5006555;28;20030;-74
2021/08/25 11:26:42;;;;;;;4.80;2.28;;;21.30;99.90;;;;;;5001202;28;20099;-73
2021/08/25 11:29:23;;;;;;;5.72;2.55;;;21.30;99.90;;;;;;5004031;28;20022;-73
2021/08/25 11:31:52;;;;;;;4.10;2.70;;;21.30;99.90;;;;;;5014916;28;20076;-73
2021/08/25 11:34:19;;;;;;;8.32;3.05;;;21.40;99.90;;;;;;5011337;28;20030;-74
2021/08/25 11:36:57;;;;;;;5.03;2.65;;;21.50;99.90;;;;;;5013536;28;20029;-74
2021/08/25 11:39:22;;;;;;;;;;;21.50;99.90;;;;;;5002854;28;20479;-74
2021/08/25 11:41:48;;;;;;;4.97;2.88;;;21.50;99.90;;;;;;5001812;28;19913;-74
2021/08/25 11:44:14;;;;;;;5.28;2.63;;;21.60;99.90;;;;;;4995349;28;20030;-73
2021/08/25 11:46:40;;;;;;;5.15;3.08;;;21.70;99.90;;;;;;4995040;28;20033;-74
2021/08/25 11:49:05;;;;;;;8.38;2.78;;;21.90;99.90;;;;;;4997837;28;20026;-74
2021/08/25 11:51:32;;;;;;;9.35;3.30;;;21.70;99.90;;;;;;5000650;28;20419;-73
2021/08/25 11:53:57;;;;;;;4.03;2.92;;;21.70;99.90;;;;;;5007859;28;20029;-73
2021/08/25 11:56:23;;;;;;;4.88;2.97;;;21.80;99.90;;;;;;5011220;28;20500;-73
2021/08/25 11:58:54;;;;;;;4.72;2.92;;;21.60;99.90;;;;;;5012849;28;20028;-73
2021/08/25 12:01:24;;;;;;;4.53;3.10;;;21.40;99.90;;;;;;4995806;28;20062;-73
2021/08/25 12:03:50;;;;;;;4.53;3.03;;;21.20;99.90;;;;;;5002241;28;20037;-73
2021/08/25 12:06:19;;;;;;;5.43;3.47;;;21.00;99.90;;;;;;5009604;28;20474;-73
2021/08/25 12:08:50;;;;;;;7.90;2.95;;;21.20;99.90;;;;;;5004194;28;20554;-73
2021/08/25 12:11:18;;;;;;;5.85;3.28;;;21.50;99.90;;;;;;4994098;28;20504;-73
2021/08/25 12:13:50;;;;;;;4.88;3.70;;;21.60;99.90;;;;;;5013506;28;20048;-73
2021/08/25 12:16:27;;;;;;;5.53;3.22;;;21.80;99.90;;;;;;5006761;28;20030;-73
2021/08/25 12:18:57;;;;;;;6.10;3.25;;;22.10;99.90;;;;;;5002054;28;20014;-73
2021/08/25 12:21:27;;;;;;;5.72;3.20;;;21.90;99.90;;;;;;5013270;28;20037;-73
2021/08/25 12:23:59;;;;;;;5.57;2.90;;;22.00;99.90;;;;;;5008226;28;20374;-74
2021/08/25 12:26:25;;;;;;;8.20;3.20;;;22.10;99.90;;;;;;4995517;28;20438;-73
2021/08/25 12:28:51;;;;;;;3.55;3.20;;;22.10;99.90;;;;;;4992711;28;20504;-73
2021/08/25 12:31:29;;;;;;;7.57;3.22;;;21.90;99.90;;;;;;5001892;28;20053;-73
2021/08/25 12:34:03;;;;;;;6.45;3.28;;;21.80;99.90;;;;;;4994236;28;20376;-73
2021/08/25 12:36:31;;;;;;;3.45;3.00;;;21.80;99.90;;;;;;4994230;28;20034;-73
2021/08/25 12:39:19;;;;;;;4.63;3.13;;;21.80;99.90;;;;;;4992733;28;20054;-73